createdAt,value
2019-03-30T00:00:38.514Z,102099.44
2019-03-30T00:03:08.056Z,102085.48
2019-03-30T00:05:39.156Z,102085.48
2019-03-30T00:08:08.540Z,102087.91
2019-03-30T00:10:38.373Z,102082.22
2019-03-30T00:13:08.046Z,102087.74
2019-03-30T00:15:39.918Z,102085.28
2019-03-30T00:18:09.294Z,102081.08
2019-03-30T00:20:38.685Z,102083.38
2019-03-30T00:23:08.172Z,102081.40
2019-03-30T00:25:37.570Z,102075.71
2019-03-30T00:28:09.676Z,102076.08
2019-03-30T00:30:39.335Z,102076.08
2019-03-30T00:33:09.006Z,102082.66
2019-03-30T00:35:38.655Z,102075.68
2019-03-30T00:38:08.466Z,102066.41
2019-03-30T00:40:37.924Z,102066.41
2019-03-30T00:43:07.666Z,102073.75
2019-03-30T00:45:37.054Z,102070.66
2019-03-30T00:48:06.844Z,102067.48
2019-03-30T00:50:36.805Z,102067.48
2019-03-30T00:53:06.777Z,102062.87
2019-03-30T00:55:36.435Z,102062.87
2019-03-30T00:58:05.807Z,102055.92
2019-03-30T01:00:35.466Z,102060.25
2019-03-30T01:03:04.833Z,102058.78
2019-03-30T01:05:34.487Z,102055.05
2019-03-30T01:08:03.866Z,102050.84
2019-03-30T01:10:33.526Z,102048.54
2019-03-30T01:13:03.872Z,102044.86
2019-03-30T01:15:33.529Z,102045.23
2019-03-30T01:18:02.976Z,102039.73
2019-03-30T01:20:32.455Z,102047.45
2019-03-30T01:23:01.824Z,102046.11
2019-03-30T01:25:31.496Z,102045.66
2019-03-30T01:28:01.106Z,102043.38
2019-03-30T01:30:31.189Z,102047.33
2019-03-30T01:33:00.691Z,102031.84
2019-03-30T01:35:30.059Z,102031.84
2019-03-30T01:37:59.500Z,102025.34
2019-03-30T01:40:28.966Z,102029.58
2019-03-30T01:42:58.560Z,102026.25
2019-03-30T01:45:28.873Z,102022.89
2019-03-30T01:47:58.527Z,102022.16
2019-03-30T01:50:28.982Z,102015.99
2019-03-30T01:52:58.567Z,102011.73
2019-03-30T01:55:28.951Z,102011.73
2019-03-30T01:57:58.576Z,102005.15
2019-03-30T02:00:28.889Z,102008.36
2019-03-30T02:02:58.542Z,102003.00
2019-03-30T02:05:28.999Z,102001.61
2019-03-30T02:07:58.617Z,101996.66
2019-03-30T02:10:39.753Z,101997.43
2019-03-30T02:13:09.380Z,101997.06
2019-03-30T02:15:39.131Z,101995.44
2019-03-30T02:18:09.532Z,101992.03
2019-03-30T02:20:41.562Z,101999.47
2019-03-30T02:23:10.990Z,101998.06
2019-03-30T02:25:40.646Z,101986.33
2019-03-30T02:28:10.068Z,101991.48
2019-03-30T02:30:39.756Z,101992.58
2019-03-30T02:33:09.190Z,101988.55
2019-03-30T02:35:38.856Z,101986.08
2019-03-30T02:38:08.499Z,101986.08
2019-03-30T02:40:38.169Z,101989.77
2019-03-30T02:43:09.096Z,101988.63
2019-03-30T02:45:38.937Z,101984.33
2019-03-30T02:48:08.291Z,101986.68
2019-03-30T02:50:49.820Z,101983.55
2019-03-30T02:53:11.737Z,101977.62
2019-03-30T02:55:41.204Z,101976.25
2019-03-30T02:58:10.702Z,101974.02
2019-03-30T03:00:40.367Z,101962.49
2019-03-30T03:03:10.072Z,101962.04
2019-03-30T03:05:39.824Z,101970.53
2019-03-30T03:08:09.181Z,101964.39
2019-03-30T03:10:38.778Z,101958.14
2019-03-30T03:13:09.188Z,101963.25
2019-03-30T03:15:39.037Z,101957.48
2019-03-30T03:18:08.395Z,101954.48
2019-03-30T03:20:39.551Z,101955.46
2019-03-30T03:23:08.923Z,101955.62
2019-03-30T03:25:38.283Z,101955.21
2019-03-30T03:28:07.766Z,101951.07
2019-03-30T03:30:37.402Z,101948.23
2019-03-30T03:33:06.869Z,101939.19
2019-03-30T03:35:36.262Z,101941.75
2019-03-30T03:38:05.839Z,101942.97
2019-03-30T03:40:35.234Z,101941.95
2019-03-30T03:43:04.801Z,101934.23
2019-03-30T03:45:35.123Z,101933.30
2019-03-30T03:48:04.785Z,101930.22
2019-03-30T03:50:40.149Z,101929.41
2019-03-30T03:53:11.450Z,101928.27
2019-03-30T03:55:41.348Z,101920.92
2019-03-30T03:58:11.863Z,101914.02
2019-03-30T04:00:41.547Z,101911.14
2019-03-30T04:03:12.064Z,101905.54
2019-03-30T04:05:45.036Z,101899.66
2019-03-30T04:08:14.390Z,101900.50
2019-03-30T04:10:46.666Z,101900.37
2019-03-30T04:13:16.097Z,101896.22
2019-03-30T04:15:47.166Z,101897.30
2019-03-30T04:18:17.708Z,101895.56
2019-03-30T04:20:47.395Z,101890.73
2019-03-30T04:23:17.717Z,101890.73
2019-03-30T04:25:47.831Z,101890.81
2019-03-30T04:28:17.214Z,101892.48
2019-03-30T04:30:46.567Z,101885.19
2019-03-30T04:33:16.095Z,101883.24
2019-03-30T04:35:45.452Z,101883.65
2019-03-30T04:38:14.989Z,101884.09
2019-03-30T04:40:44.364Z,101881.50
2019-03-30T04:43:13.963Z,101876.14
2019-03-30T04:45:43.616Z,101876.63
2019-03-30T04:48:13.078Z,101870.98
2019-03-30T04:50:42.433Z,101866.72
2019-03-30T04:53:12.048Z,101861.08
2019-03-30T04:55:41.412Z,101863.35
2019-03-30T04:58:11.012Z,101862.38
2019-03-30T05:00:40.606Z,101862.38
2019-03-30T05:03:10.118Z,101853.54
2019-03-30T05:05:43.098Z,101859.82
2019-03-30T05:08:12.181Z,101858.61
2019-03-30T05:10:41.529Z,101860.02
2019-03-30T05:13:11.020Z,101859.61
2019-03-30T05:15:40.382Z,101860.09
2019-03-30T05:18:10.335Z,101861.88
2019-03-30T05:20:39.983Z,101863.41
2019-03-30T05:23:09.362Z,101868.50
2019-03-30T05:25:39.539Z,101867.77
2019-03-30T05:28:10.382Z,101865.69
2019-03-30T05:30:40.043Z,101868.97
2019-03-30T05:33:11.211Z,101866.85
2019-03-30T05:35:40.968Z,101864.73
2019-03-30T05:38:10.589Z,101863.52
2019-03-30T05:40:40.249Z,101861.73
2019-03-30T05:43:09.627Z,101866.00
2019-03-30T05:45:39.235Z,101864.99
2019-03-30T05:48:10.138Z,101863.06
2019-03-30T05:50:39.500Z,101870.84
2019-03-30T05:53:09.444Z,101866.09
2019-03-30T05:55:40.754Z,101870.23
2019-03-30T05:58:10.133Z,101868.06
2019-03-30T06:00:39.489Z,101861.02
2019-03-30T06:03:10.476Z,101863.70
2019-03-30T06:05:41.214Z,101866.80
2019-03-30T06:08:10.892Z,101860.55
2019-03-30T06:10:40.560Z,101862.20
2019-03-30T06:13:10.386Z,101854.48
2019-03-30T06:15:40.012Z,101857.20
2019-03-30T06:18:11.372Z,101848.12
2019-03-30T06:20:40.744Z,101853.23
2019-03-30T06:23:10.584Z,101837.63
2019-03-30T06:25:40.235Z,101837.63
2019-03-30T06:28:09.898Z,101834.84
2019-03-30T06:30:40.527Z,101837.37
2019-03-30T06:33:10.206Z,101849.55
2019-03-30T06:35:39.564Z,101840.31
2019-03-30T06:38:09.265Z,101837.27
2019-03-30T06:40:38.706Z,101835.48
2019-03-30T06:43:08.309Z,101838.86
2019-03-30T06:45:37.676Z,101843.28
2019-03-30T06:48:07.353Z,101842.81
2019-03-30T06:50:36.764Z,101833.01
2019-03-30T06:53:06.301Z,101821.53
2019-03-30T06:55:35.704Z,101821.53
2019-03-30T06:58:07.005Z,101821.11
2019-03-30T07:00:37.057Z,101821.11
2019-03-30T07:03:07.188Z,101827.09
2019-03-30T07:05:38.458Z,101823.13
2019-03-30T07:08:11.864Z,101825.34
2019-03-30T07:10:43.588Z,101821.86
2019-03-30T07:13:14.815Z,101809.87
2019-03-30T07:15:48.364Z,101809.87
2019-03-30T07:18:19.952Z,101815.52
2019-03-30T07:20:49.388Z,101806.81
2019-03-30T07:23:19.033Z,101810.64
2019-03-30T07:25:48.397Z,101813.09
2019-03-30T07:28:18.020Z,101815.67
2019-03-30T07:30:47.469Z,101812.08
2019-03-30T07:33:17.139Z,101805.10
2019-03-30T07:35:46.508Z,101807.12
2019-03-30T07:38:15.898Z,101807.33
2019-03-30T07:40:45.604Z,101803.77
2019-03-30T07:43:15.280Z,101805.17
2019-03-30T07:45:44.941Z,101803.98
2019-03-30T07:48:14.466Z,101807.18
2019-03-30T07:50:43.834Z,101803.46
2019-03-30T07:53:25.508Z,101802.81
2019-03-30T07:55:45.316Z,101806.09
2019-03-30T07:58:16.395Z,101805.56
2019-03-30T08:00:46.849Z,101799.66
2019-03-30T08:03:16.528Z,101795.22
2019-03-30T08:05:45.902Z,101799.19
2019-03-30T08:08:15.486Z,101796.55
2019-03-30T08:10:44.907Z,101802.53
2019-03-30T08:13:14.430Z,101795.16
2019-03-30T08:15:44.103Z,101793.70
2019-03-30T08:18:13.589Z,101794.32
2019-03-30T08:20:42.954Z,101786.80
2019-03-30T08:23:12.512Z,101792.72
2019-03-30T08:25:41.883Z,101785.27
2019-03-30T08:28:11.497Z,101785.55
2019-03-30T08:30:41.451Z,101786.80
2019-03-30T08:33:11.800Z,101786.37
2019-03-30T08:35:41.463Z,101778.44
2019-03-30T08:38:10.851Z,101789.13
2019-03-30T08:40:41.436Z,101783.70
2019-03-30T08:43:12.041Z,101790.48
2019-03-30T08:45:41.945Z,101785.09
2019-03-30T08:48:11.325Z,101777.44
2019-03-30T08:50:40.988Z,101787.95
2019-03-30T08:53:10.700Z,101786.27
2019-03-30T08:55:40.061Z,101777.41
2019-03-30T08:58:09.964Z,101783.45
2019-03-30T09:00:41.353Z,101771.86
2019-03-30T09:03:11.010Z,101778.11
2019-03-30T09:05:40.665Z,101772.62
2019-03-30T09:08:11.858Z,101776.22
2019-03-30T09:10:41.813Z,101771.68
2019-03-30T09:13:11.196Z,101767.20
2019-03-30T09:15:40.799Z,101771.34
2019-03-30T09:18:10.421Z,101765.33
2019-03-30T09:20:40.133Z,101766.48
2019-03-30T09:23:09.828Z,101758.06
2019-03-30T09:25:39.278Z,101758.67
2019-03-30T09:28:08.987Z,101757.95
2019-03-30T09:30:38.369Z,101757.70
2019-03-30T09:33:07.863Z,101747.59
2019-03-30T09:35:37.243Z,101738.00
2019-03-30T09:38:06.826Z,101742.73
2019-03-30T09:40:36.214Z,101733.53
2019-03-30T09:43:05.814Z,101723.58
2019-03-30T09:45:35.549Z,101725.98
2019-03-30T09:48:04.919Z,101716.95
2019-03-30T09:50:34.299Z,101714.53
2019-03-30T09:53:03.859Z,101713.67
2019-03-30T09:55:33.316Z,101712.36
2019-03-30T09:58:02.817Z,101708.03
2019-03-30T10:00:32.276Z,101705.78
2019-03-30T10:03:05.944Z,101697.07
2019-03-30T10:05:34.008Z,101688.94
2019-03-30T10:08:03.446Z,101688.94
2019-03-30T10:10:33.111Z,101696.19
2019-03-30T10:13:03.069Z,101688.82
2019-03-30T10:15:32.446Z,101683.86
2019-03-30T10:18:04.524Z,101688.96
2019-03-30T10:20:35.126Z,101682.63
2019-03-30T10:23:04.513Z,101682.84
2019-03-30T10:25:34.153Z,101681.50
2019-03-30T10:28:03.884Z,101671.72
2019-03-30T10:30:33.549Z,101672.27
2019-03-30T10:33:03.072Z,101671.84
2019-03-30T10:35:32.707Z,101665.69
2019-03-30T10:38:02.084Z,101664.17
2019-03-30T10:40:31.474Z,101672.08
2019-03-30T10:43:02.824Z,101661.12
2019-03-30T10:45:33.468Z,101658.69
2019-03-30T10:48:04.505Z,101663.34
2019-03-30T10:50:34.184Z,101658.16
2019-03-30T10:53:04.213Z,101651.63
2019-03-30T10:55:33.887Z,101651.63
2019-03-30T10:58:03.245Z,101645.80
2019-03-30T11:00:35.473Z,101646.87
2019-03-30T11:03:05.455Z,101639.78
2019-03-30T11:05:35.324Z,101633.77
2019-03-30T11:08:05.049Z,101645.64
2019-03-30T11:10:34.422Z,101638.77
2019-03-30T11:13:03.865Z,101632.75
2019-03-30T11:15:34.289Z,101627.61
2019-03-30T11:18:04.584Z,101622.64
2019-03-30T11:20:35.297Z,101618.18
2019-03-30T11:23:05.015Z,101618.18
2019-03-30T11:25:34.428Z,101613.48
2019-03-30T11:28:04.237Z,101611.02
2019-03-30T11:30:33.605Z,101611.80
2019-03-30T11:33:03.099Z,101603.52
2019-03-30T11:35:32.478Z,101604.09
2019-03-30T11:38:02.054Z,101596.28
2019-03-30T11:40:32.487Z,101601.79
2019-03-30T11:43:02.180Z,101589.69
2019-03-30T11:45:31.546Z,101592.47
2019-03-30T11:48:01.132Z,101599.02
2019-03-30T11:50:30.519Z,101585.44
2019-03-30T11:53:00.123Z,101584.88
2019-03-30T11:55:30.429Z,101578.16
2019-03-30T11:57:59.800Z,101572.30
2019-03-30T12:00:32.961Z,101566.27
2019-03-30T12:03:02.338Z,101569.91
2019-03-30T12:05:31.717Z,101563.98
2019-03-30T12:08:01.163Z,101553.17
2019-03-30T12:10:30.538Z,101550.30
2019-03-30T12:13:00.246Z,101559.13
2019-03-30T12:15:30.581Z,101566.86
2019-03-30T12:18:00.204Z,101555.00
2019-03-30T12:20:30.514Z,101562.24
2019-03-30T12:23:00.241Z,101556.42
2019-03-30T12:25:35.982Z,101556.23
2019-03-30T12:28:01.792Z,101543.91
2019-03-30T12:30:31.443Z,101537.70
2019-03-30T12:33:01.369Z,101557.95
2019-03-30T12:35:31.855Z,101536.02
2019-03-30T12:38:03.707Z,101538.58
2019-03-30T12:40:33.362Z,101520.91
2019-03-30T12:43:02.735Z,101524.34
2019-03-30T12:45:32.385Z,101522.59
2019-03-30T12:48:01.762Z,101516.10
2019-03-30T12:50:31.436Z,101515.92
2019-03-30T12:53:02.153Z,101533.09
2019-03-30T12:55:31.911Z,101518.52
2019-03-30T12:58:01.319Z,101518.84
2019-03-30T13:00:31.037Z,101513.02
2019-03-30T13:03:00.458Z,101519.53
2019-03-30T13:05:30.626Z,101512.16
2019-03-30T13:08:00.236Z,101506.15
2019-03-30T13:10:30.598Z,101510.72
2019-03-30T13:12:59.965Z,101514.33
2019-03-30T13:15:29.415Z,101514.69
2019-03-30T13:17:58.799Z,101501.41
2019-03-30T13:20:28.301Z,101507.02
2019-03-30T13:22:57.662Z,101504.86
2019-03-30T13:25:27.339Z,101503.52
2019-03-30T13:27:56.951Z,101502.14
2019-03-30T13:30:28.859Z,101493.29
2019-03-30T13:32:58.356Z,101496.23
2019-03-30T13:35:27.733Z,101495.70
2019-03-30T13:37:57.303Z,101496.72
2019-03-30T13:40:28.457Z,101496.05
2019-03-30T13:42:58.091Z,101489.17
2019-03-30T13:45:27.479Z,101496.19
2019-03-30T13:47:56.846Z,101499.42
2019-03-30T13:50:26.379Z,101505.06
2019-03-30T13:52:55.743Z,101500.10
2019-03-30T13:55:25.417Z,101492.03
2019-03-30T13:57:54.818Z,101483.84
2019-03-30T14:00:24.475Z,101492.23
2019-03-30T14:02:53.835Z,101482.97
2019-03-30T14:05:25.044Z,101482.50
2019-03-30T14:07:54.414Z,101478.13
2019-03-30T14:10:23.782Z,101478.73
2019-03-30T14:12:53.476Z,101478.23
2019-03-30T14:15:22.867Z,101470.30
2019-03-30T14:17:52.903Z,101475.03
2019-03-30T14:20:22.439Z,101474.93
2019-03-30T14:22:51.897Z,101474.83
2019-03-30T14:25:21.549Z,101474.69
2019-03-30T14:27:50.924Z,101476.62
2019-03-30T14:30:20.664Z,101470.34
2019-03-30T14:32:51.089Z,101470.92
2019-03-30T14:35:20.453Z,101466.50
2019-03-30T14:37:49.836Z,101470.78
2019-03-30T14:40:19.517Z,101470.78
2019-03-30T14:42:48.879Z,101470.78
2019-03-30T14:45:18.531Z,101456.92
2019-03-30T14:47:47.895Z,101449.56
2019-03-30T14:50:17.795Z,101464.66
2019-03-30T14:52:47.744Z,101459.84
2019-03-30T14:55:17.122Z,101450.20
2019-03-30T14:57:47.458Z,101464.30
2019-03-30T15:00:16.848Z,101470.52
2019-03-30T15:02:46.559Z,101457.77
2019-03-30T15:05:15.919Z,101468.53
2019-03-30T15:07:45.713Z,101457.23
2019-03-30T15:10:15.334Z,101457.23
2019-03-30T15:12:44.922Z,101449.38
2019-03-30T15:15:15.018Z,101465.39
2019-03-30T15:17:44.674Z,101451.52
2019-03-30T15:20:14.201Z,101449.85
2019-03-30T15:22:43.850Z,101461.86
2019-03-30T15:25:13.562Z,101452.30
2019-03-30T15:27:44.457Z,101449.00
2019-03-30T15:30:14.216Z,101447.29
2019-03-30T15:32:43.933Z,101445.37
2019-03-30T15:35:13.631Z,101454.61
2019-03-30T15:37:43.295Z,101442.09
2019-03-30T15:40:12.751Z,101442.09
2019-03-30T15:42:42.315Z,101447.37
2019-03-30T15:45:12.232Z,101444.27
2019-03-30T15:47:42.937Z,101451.94
2019-03-30T15:50:13.573Z,101452.41
2019-03-30T15:52:43.358Z,101451.17
2019-03-30T15:55:13.929Z,101448.98
2019-03-30T15:57:43.301Z,101447.30
2019-03-30T16:00:15.012Z,101446.06
2019-03-30T16:02:44.417Z,101453.03
2019-03-30T16:05:15.673Z,101445.35
2019-03-30T16:07:45.645Z,101442.68
2019-03-30T16:10:15.087Z,101445.82
2019-03-30T16:12:44.483Z,101445.16
2019-03-30T16:15:14.135Z,101440.83
2019-03-30T16:17:43.813Z,101435.56
2019-03-30T16:20:13.262Z,101437.00
2019-03-30T16:22:43.258Z,101438.83
2019-03-30T16:25:12.919Z,101441.03
2019-03-30T16:27:42.493Z,101440.84
2019-03-30T16:30:12.995Z,101451.36
2019-03-30T16:32:42.460Z,101444.23
2019-03-30T16:35:11.946Z,101445.73
2019-03-30T16:37:41.327Z,101445.83
2019-03-30T16:40:11.152Z,101446.45
2019-03-30T16:42:41.216Z,101443.17
2019-03-30T16:45:13.644Z,101441.36
2019-03-30T16:47:44.472Z,101445.84
2019-03-30T16:50:14.142Z,101445.33
2019-03-30T16:52:44.111Z,101446.44
2019-03-30T16:55:13.516Z,101442.45
2019-03-30T16:57:44.291Z,101445.97
2019-03-30T17:00:14.138Z,101445.97
2019-03-30T17:02:43.522Z,101444.59
2019-03-30T17:05:13.262Z,101441.55
2019-03-30T17:07:42.961Z,101444.79
2019-03-30T17:10:12.315Z,101440.80
2019-03-30T17:12:41.993Z,101435.60
2019-03-30T17:15:11.422Z,101437.48
2019-03-30T17:17:41.456Z,101427.55
2019-03-30T17:20:11.228Z,101427.55
2019-03-30T17:22:41.218Z,101436.93
2019-03-30T17:25:10.687Z,101440.93
2019-03-30T17:27:41.398Z,101438.40
2019-03-30T17:30:11.282Z,101432.58
2019-03-30T17:32:40.679Z,101433.27
2019-03-30T17:35:10.133Z,101431.19
2019-03-30T17:37:39.496Z,101442.03
2019-03-30T17:40:09.838Z,101440.98
2019-03-30T17:42:41.130Z,101444.52
2019-03-30T17:45:10.934Z,101441.17
2019-03-30T17:47:40.926Z,101445.80
2019-03-30T17:50:12.595Z,101447.92
2019-03-30T17:52:42.408Z,101452.58
2019-03-30T17:55:11.768Z,101445.77
2019-03-30T17:57:41.275Z,101448.66
2019-03-30T18:00:12.933Z,101453.34
2019-03-30T18:02:44.952Z,101448.13
2019-03-30T18:05:14.526Z,101451.58
2019-03-30T18:07:44.665Z,101453.94
2019-03-30T18:10:14.398Z,101456.30
2019-03-30T18:12:43.747Z,101456.91
2019-03-30T18:15:13.487Z,101462.70
2019-03-30T18:17:43.173Z,101468.02
2019-03-30T18:20:12.875Z,101468.01
2019-03-30T18:22:42.620Z,101475.98
2019-03-30T18:25:12.643Z,101476.06
2019-03-30T18:27:42.380Z,101474.77
2019-03-30T18:30:12.997Z,101476.23
2019-03-30T18:32:44.229Z,101483.52
2019-03-30T18:35:13.683Z,101483.95
2019-03-30T18:37:43.672Z,101490.22
2019-03-30T18:40:16.505Z,101490.05
2019-03-30T18:42:46.240Z,101492.75
2019-03-30T18:45:24.631Z,101494.45
2019-03-30T18:47:55.206Z,101492.91
2019-03-30T18:50:24.584Z,101505.55
2019-03-30T18:52:54.208Z,101522.38
2019-03-30T18:55:23.749Z,101528.98
2019-03-30T18:57:53.336Z,101535.37
2019-03-30T19:00:28.580Z,101536.70
2019-03-30T19:02:58.284Z,101543.04
2019-03-30T19:05:27.912Z,101541.09
2019-03-30T19:07:57.862Z,101538.59
2019-03-30T19:10:27.430Z,101544.42
2019-03-30T19:12:56.834Z,101547.88
2019-03-30T19:15:26.363Z,101548.48
2019-03-30T19:17:55.751Z,101553.09
2019-03-30T19:20:25.320Z,101554.22
2019-03-30T19:22:54.721Z,101551.75
2019-03-30T19:25:29.478Z,101551.77
2019-03-30T19:27:57.625Z,101547.72
2019-03-30T19:30:27.365Z,101553.53
2019-03-30T19:32:58.301Z,101546.80
2019-03-30T19:35:27.679Z,101548.26
2019-03-30T19:37:57.319Z,101556.92
2019-03-30T19:40:26.702Z,101554.52
2019-03-30T19:42:57.534Z,101563.05
2019-03-30T19:45:27.155Z,101562.30
2019-03-30T19:47:56.520Z,101562.20
2019-03-30T19:50:25.896Z,101564.31
2019-03-30T19:52:55.363Z,101567.26
2019-03-30T19:55:24.733Z,101572.21
2019-03-30T19:57:54.110Z,101562.86
2019-03-30T20:00:23.701Z,101565.94
2019-03-30T20:02:53.067Z,101565.30
2019-03-30T20:05:22.650Z,101562.45
2019-03-30T20:07:52.014Z,101568.85
2019-03-30T20:10:21.753Z,101561.59
2019-03-30T20:12:51.119Z,101563.19
2019-03-30T20:15:20.739Z,101561.45
2019-03-30T20:17:50.159Z,101565.66
2019-03-30T20:20:19.699Z,101574.39
2019-03-30T20:22:51.181Z,101579.09
2019-03-30T20:25:21.060Z,101573.41
2019-03-30T20:27:50.972Z,101574.11
2019-03-30T20:30:24.162Z,101574.11
2019-03-30T20:32:51.784Z,101587.78
2019-03-30T20:35:21.167Z,101589.36
2019-03-30T20:37:50.724Z,101584.44
2019-03-30T20:40:20.102Z,101583.94
2019-03-30T20:42:49.876Z,101582.06
2019-03-30T20:45:19.504Z,101593.75
2019-03-30T20:47:48.868Z,101592.00
2019-03-30T20:50:18.424Z,101595.44
2019-03-30T20:52:48.078Z,101585.33
2019-03-30T20:55:17.754Z,101585.33
2019-03-30T20:57:47.124Z,101591.00
2019-03-30T21:00:17.479Z,101602.08
2019-03-30T21:02:47.040Z,101601.55
2019-03-30T21:05:16.725Z,101594.16
2019-03-30T21:07:46.843Z,101599.69
2019-03-30T21:10:16.287Z,101601.95
2019-03-30T21:12:45.861Z,101601.55
2019-03-30T21:15:15.240Z,101610.14
2019-03-30T21:17:44.910Z,101611.70
2019-03-30T21:20:14.821Z,101604.53
2019-03-30T21:22:45.991Z,101606.09
2019-03-30T21:25:16.944Z,101608.67
2019-03-30T21:27:46.326Z,101605.55
2019-03-30T21:30:16.309Z,101608.84
2019-03-30T21:32:46.046Z,101602.41
2019-03-30T21:35:15.716Z,101611.33
2019-03-30T21:37:45.656Z,101612.76
2019-03-30T21:40:15.033Z,101610.01
2019-03-30T21:42:44.405Z,101616.39
2019-03-30T21:45:13.953Z,101617.72
2019-03-30T21:47:43.314Z,101616.20
2019-03-30T21:50:13.047Z,101614.42
2019-03-30T21:52:42.424Z,101614.86
2019-03-30T21:55:12.193Z,101610.76
2019-03-30T21:57:41.873Z,101608.68
2019-03-30T22:00:11.885Z,101605.33
2019-03-30T22:02:41.377Z,101605.92
2019-03-30T22:05:11.063Z,101612.30
2019-03-30T22:07:41.000Z,101614.02
2019-03-30T22:10:14.070Z,101611.06
2019-03-30T22:12:43.566Z,101610.38
2019-03-30T22:15:16.145Z,101612.44
2019-03-30T22:17:45.833Z,101613.14
2019-03-30T22:20:15.883Z,101620.11
2019-03-30T22:22:45.517Z,101619.92
2019-03-30T22:25:16.052Z,101616.96
2019-03-30T22:27:45.446Z,101620.75
2019-03-30T22:30:24.788Z,101616.52
2019-03-30T22:32:46.560Z,101622.73
2019-03-30T22:35:15.957Z,101627.22
2019-03-30T22:37:45.635Z,101628.32
2019-03-30T22:40:16.498Z,101634.03
2019-03-30T22:42:46.120Z,101629.65
2019-03-30T22:45:15.522Z,101630.27
2019-03-30T22:47:45.478Z,101625.33
2019-03-30T22:50:15.084Z,101635.27
2019-03-30T22:52:44.770Z,101633.92
2019-03-30T22:55:15.755Z,101632.77
2019-03-30T22:57:45.538Z,101628.92
2019-03-30T23:00:39.091Z,101631.34
2019-03-30T23:03:06.556Z,101634.32
2019-03-30T23:05:36.267Z,101627.69
2019-03-30T23:08:07.421Z,101618.16
2019-03-30T23:10:37.131Z,101618.16
2019-03-30T23:13:07.733Z,101625.30
2019-03-30T23:15:37.401Z,101625.14
2019-03-30T23:18:08.005Z,101621.79
2019-03-30T23:20:37.681Z,101624.19
2019-03-30T23:23:07.418Z,101625.64
2019-03-30T23:25:37.482Z,101625.64
2019-03-30T23:28:07.156Z,101625.77
2019-03-30T23:30:37.907Z,101625.27
2019-03-30T23:33:07.292Z,101633.36
2019-03-30T23:35:36.665Z,101630.39
2019-03-30T23:38:06.099Z,101624.91
2019-03-30T23:40:35.482Z,101632.42
2019-03-30T23:43:05.153Z,101634.73
2019-03-30T23:45:34.602Z,101631.58
2019-03-30T23:48:04.232Z,101634.27
2019-03-30T23:50:33.564Z,101634.16
2019-03-30T23:53:03.129Z,101633.78
2019-03-30T23:55:32.813Z,101631.66
2019-03-30T23:58:02.238Z,101640.55
